createdAt,value
2016-10-17T00:00:45.245Z,69.47
2016-10-17T00:01:45.265Z,69.47
2016-10-17T00:02:45.283Z,69.37
2016-10-17T00:03:45.297Z,70.14
2016-10-17T00:04:45.311Z,70.23
2016-10-17T00:05:45.332Z,69.56
2016-10-17T00:06:45.352Z,69.62
2016-10-17T00:07:45.375Z,69.72
2016-10-17T00:08:45.391Z,69.72
2016-10-17T00:09:45.408Z,70.01
2016-10-17T00:10:45.431Z,69.76
2016-10-17T00:11:45.451Z,69.53
2016-10-17T00:12:45.464Z,69.76
2016-10-17T00:13:45.481Z,69.53
2016-10-17T00:14:45.505Z,69.76
2016-10-17T00:15:45.523Z,69.91
2016-10-17T00:16:45.540Z,70.01
2016-10-17T00:17:45.559Z,69.82
2016-10-17T00:18:45.576Z,69.53
2016-10-17T00:19:45.596Z,69.72
2016-10-17T00:20:45.622Z,69.43
2016-10-17T00:21:45.635Z,69.72
2016-10-17T00:22:45.654Z,69.34
2016-10-17T00:23:45.671Z,69.15
2016-10-17T00:24:45.690Z,70.01
2016-10-17T00:25:45.711Z,69.43
2016-10-17T00:26:45.732Z,69.72
2016-10-17T00:27:45.750Z,69.62
2016-10-17T00:28:45.766Z,69.82
2016-10-17T00:29:45.785Z,69.72
2016-10-17T00:30:45.803Z,69.91
2016-10-17T00:31:45.824Z,70.01
2016-10-17T00:32:45.843Z,69.72
2016-10-17T00:33:45.869Z,69.53
2016-10-17T00:34:45.881Z,69.82
2016-10-17T00:35:45.901Z,69.91
2016-10-17T00:36:45.918Z,70.01
2016-10-17T00:37:45.937Z,70.29
2016-10-17T00:38:45.956Z,69.43
2016-10-17T00:39:45.984Z,69.82
2016-10-17T00:40:45.996Z,69.53
2016-10-17T00:41:46.015Z,69.82
2016-10-17T00:42:46.033Z,69.43
2016-10-17T00:43:46.068Z,70.29
2016-10-17T00:44:46.080Z,70.01
2016-10-17T00:45:46.093Z,70.2
2016-10-17T00:46:46.112Z,69.53
2016-10-17T00:47:46.135Z,69.62
2016-10-17T00:48:46.147Z,70.29
2016-10-17T00:49:46.174Z,69.43
2016-10-17T00:50:46.184Z,70.29
2016-10-17T00:51:46.205Z,70.2
2016-10-17T00:52:46.223Z,70.58
2016-10-17T00:53:46.240Z,70.39
2016-10-17T00:54:46.262Z,70.77
2016-10-17T00:55:46.285Z,70.2
2016-10-17T00:56:46.299Z,70.39
2016-10-17T00:57:46.315Z,70.58
2016-10-17T00:58:46.342Z,70.39
2016-10-17T00:59:46.357Z,70.39
2016-10-17T01:00:46.381Z,70.58
2016-10-17T01:01:46.397Z,70.29
2016-10-17T01:02:46.417Z,70.48
2016-10-17T01:03:46.432Z,70.2
2016-10-17T01:04:46.450Z,69.91
2016-10-17T01:05:46.471Z,70.39
2016-10-17T01:06:46.503Z,70.2
2016-10-17T01:07:46.506Z,70.39
2016-10-17T01:08:46.526Z,70.58
2016-10-17T01:09:46.546Z,70.58
2016-10-17T01:10:46.566Z,70.29
2016-10-17T01:11:46.583Z,70.67
2016-10-17T01:12:46.602Z,70.48
2016-10-17T01:13:46.621Z,70.39
2016-10-17T01:14:46.641Z,70.29
2016-10-17T01:15:46.659Z,70.39
2016-10-17T01:16:46.676Z,70.29
2016-10-17T01:17:46.699Z,70.39
2016-10-17T01:18:46.723Z,70.2
2016-10-17T01:19:46.735Z,70.1
2016-10-17T01:20:46.755Z,70.29
2016-10-17T01:21:46.778Z,70.2
2016-10-17T01:22:46.791Z,70.58
2016-10-17T01:23:46.813Z,70.77
2016-10-17T01:24:46.833Z,70.67
2016-10-17T01:25:46.852Z,70.48
2016-10-17T01:26:46.871Z,70.67
2016-10-17T01:27:46.893Z,70.96
2016-10-17T01:28:46.907Z,70.77
2016-10-17T01:29:46.937Z,70.87
2016-10-17T01:30:46.946Z,70.67
2016-10-17T01:31:46.966Z,70.77
2016-10-17T01:32:46.985Z,70.87
2016-10-17T01:33:47.008Z,70.48
2016-10-17T01:34:47.029Z,70.87
2016-10-17T01:35:47.039Z,70.77
2016-10-17T01:36:47.061Z,70.58
2016-10-17T01:37:47.076Z,70.87
2016-10-17T01:38:47.094Z,70.77
2016-10-17T01:39:47.114Z,70.77
2016-10-17T01:40:47.135Z,70.87
2016-10-17T01:41:47.153Z,70.67
2016-10-17T01:42:47.173Z,70.58
2016-10-17T01:43:47.191Z,70.77
2016-10-17T01:44:47.208Z,70.48
2016-10-17T01:45:47.226Z,70.48
2016-10-17T01:46:47.245Z,70.67
2016-10-17T01:47:47.266Z,70.67
2016-10-17T01:48:47.282Z,70.87
2016-10-17T01:49:47.301Z,70.58
2016-10-17T01:50:47.319Z,70.48
2016-10-17T01:51:47.339Z,70.96
2016-10-17T01:52:47.358Z,70.96
2016-10-17T01:53:47.377Z,70.67
2016-10-17T01:54:47.395Z,70.96
2016-10-17T01:55:47.415Z,70.29
2016-10-17T01:56:47.433Z,70.77
2016-10-17T01:57:47.451Z,70.77
2016-10-17T01:58:47.473Z,70.77
2016-10-17T01:59:47.500Z,70.87
2016-10-17T02:00:47.516Z,70.96
2016-10-17T02:01:47.527Z,70.96
2016-10-17T02:02:47.546Z,70.67
2016-10-17T02:03:47.568Z,71.06
2016-10-17T02:04:47.592Z,70.48
2016-10-17T02:05:47.609Z,70.96
2016-10-17T02:06:47.622Z,70.39
2016-10-17T02:07:47.644Z,71.06
2016-10-17T02:08:47.662Z,70.48
2016-10-17T02:09:47.680Z,70.96
2016-10-17T02:10:47.698Z,70.96
2016-10-17T02:11:47.722Z,70.67
2016-10-17T02:12:47.741Z,70.77
2016-10-17T02:13:47.754Z,70.67
2016-10-17T02:14:47.773Z,70.67
2016-10-17T02:15:47.796Z,70.96
2016-10-17T02:16:47.816Z,71.06
2016-10-17T02:17:47.837Z,70.96
2016-10-17T02:18:47.848Z,70.77
2016-10-17T02:19:47.869Z,70.29
2016-10-17T02:20:47.886Z,70.96
2016-10-17T02:21:47.907Z,70.67
2016-10-17T02:22:47.924Z,70.48
2016-10-17T02:23:47.944Z,70.58
2016-10-17T02:24:47.961Z,70.58
2016-10-17T02:25:47.977Z,70.48
2016-10-17T02:26:47.999Z,71.06
2016-10-17T02:27:48.018Z,71.15
2016-10-17T02:28:48.038Z,70.96
2016-10-17T02:29:48.057Z,70.96
2016-10-17T02:30:48.077Z,71.06
2016-10-17T02:31:48.094Z,71.06
2016-10-17T02:32:48.111Z,71.06
2016-10-17T02:33:48.140Z,70.96
2016-10-17T02:34:48.151Z,71.25
2016-10-17T02:35:48.170Z,71.06
2016-10-17T02:36:48.188Z,71.63
2016-10-17T02:37:48.207Z,71.06
2016-10-17T02:38:48.244Z,70.96
2016-10-17T02:39:48.244Z,71.15
2016-10-17T02:40:48.317Z,70.67
2016-10-17T02:41:48.282Z,70.77
2016-10-17T02:42:48.469Z,70.77
2016-10-17T02:43:48.513Z,70.87
2016-10-17T02:44:48.342Z,70.77
2016-10-17T02:45:48.465Z,70.87
2016-10-17T02:46:48.392Z,70.77
2016-10-17T02:47:48.395Z,70.67
2016-10-17T02:48:48.411Z,71.06
2016-10-17T02:49:48.434Z,71.25
2016-10-17T02:50:48.526Z,71.06
2016-10-17T02:51:48.471Z,70.67
2016-10-17T02:52:48.490Z,71.15
2016-10-17T02:53:48.510Z,71.25
2016-10-17T02:54:48.528Z,71.06
2016-10-17T02:55:48.545Z,71.06
2016-10-17T02:56:48.565Z,71.06
2016-10-17T02:57:48.607Z,70.96
2016-10-17T02:58:48.631Z,71.06
2016-10-17T02:59:49.016Z,70.67
2016-10-17T03:00:48.640Z,71.06
2016-10-17T03:01:48.685Z,71.06
2016-10-17T03:02:48.678Z,71.63
2016-10-17T03:03:48.781Z,71.06
2016-10-17T03:04:48.778Z,70.96
2016-10-17T03:05:48.774Z,70.96
2016-10-17T03:06:48.890Z,71.06
2016-10-17T03:07:48.813Z,71.06
2016-10-17T03:08:48.791Z,71.15
2016-10-17T03:09:48.810Z,71.25
2016-10-17T03:10:48.832Z,71.15
2016-10-17T03:11:48.852Z,70.87
2016-10-17T03:12:48.865Z,70.96
2016-10-17T03:13:48.885Z,71.15
2016-10-17T03:14:48.905Z,71.44
2016-10-17T03:15:48.922Z,71.34
2016-10-17T03:16:48.940Z,71.25
2016-10-17T03:17:48.960Z,71.41
2016-10-17T03:18:48.977Z,71.34
2016-10-17T03:19:49.000Z,71.34
2016-10-17T03:20:49.023Z,71.44
2016-10-17T03:21:49.039Z,71.31
2016-10-17T03:22:49.059Z,71.53
2016-10-17T03:23:49.073Z,71.25
2016-10-17T03:24:49.092Z,71.31
2016-10-17T03:25:49.109Z,71.53
2016-10-17T03:26:49.131Z,71.02
2016-10-17T03:27:49.147Z,71.02
2016-10-17T03:28:49.168Z,71.63
2016-10-17T03:29:49.185Z,71.44
2016-10-17T03:30:49.204Z,71.31
2016-10-17T03:31:49.224Z,71.06
2016-10-17T03:32:49.242Z,71.5
2016-10-17T03:33:49.263Z,71.44
2016-10-17T03:34:49.281Z,71.31
2016-10-17T03:35:49.297Z,71.21
2016-10-17T03:36:49.318Z,71.44
2016-10-17T03:37:49.334Z,71.5
2016-10-17T03:38:49.353Z,71.41
2016-10-17T03:39:49.374Z,71.5
2016-10-17T03:40:49.392Z,71.5
2016-10-17T03:41:49.413Z,71.44
2016-10-17T03:42:49.428Z,71.5
2016-10-17T03:43:49.447Z,71.44
2016-10-17T03:44:49.466Z,71.25
2016-10-17T03:45:49.486Z,71.41
2016-10-17T03:46:49.503Z,71.5
2016-10-17T03:47:49.526Z,71.21
2016-10-17T03:48:49.545Z,71.31
2016-10-17T03:49:49.559Z,71.21
2016-10-17T03:50:49.585Z,71.41
2016-10-17T03:51:49.597Z,71.34
2016-10-17T03:52:49.929Z,71.41
2016-10-17T03:53:49.635Z,71.34
2016-10-17T03:54:49.653Z,71.34
2016-10-17T03:55:49.678Z,71.41
2016-10-17T03:56:49.693Z,71.41
2016-10-17T03:57:49.711Z,71.41
2016-10-17T03:58:49.729Z,71.31
2016-10-17T03:59:49.747Z,71.31
2016-10-17T04:00:49.765Z,71.44
2016-10-17T04:01:49.785Z,71.31
2016-10-17T04:02:49.949Z,71.41
2016-10-17T04:03:49.887Z,71.41
2016-10-17T04:04:49.858Z,71.41
2016-10-17T04:05:49.976Z,71.41
2016-10-17T04:06:49.877Z,71.41
2016-10-17T04:07:49.908Z,71.41
2016-10-17T04:08:50.227Z,71.41
2016-10-17T04:09:49.930Z,71.5
2016-10-17T04:10:49.964Z,71.41
2016-10-17T04:11:49.973Z,71.5
2016-10-17T04:12:49.988Z,71.31
2016-10-17T04:13:50.007Z,71.21
2016-10-17T04:14:50.028Z,71.59
2016-10-17T04:15:50.366Z,71.98
2016-10-17T04:16:50.062Z,71.88
2016-10-17T04:17:50.082Z,71.5
2016-10-17T04:18:50.101Z,71.78
2016-10-17T04:19:50.121Z,71.98
2016-10-17T04:20:50.140Z,71.69
2016-10-17T04:21:50.158Z,71.98
2016-10-17T04:22:50.190Z,71.41
2016-10-17T04:23:50.196Z,71.98
2016-10-17T04:24:50.211Z,71.98
2016-10-17T04:25:50.234Z,71.88
2016-10-17T04:26:50.252Z,71.98
2016-10-17T04:27:50.268Z,71.69
2016-10-17T04:28:50.287Z,71.69
2016-10-17T04:29:50.305Z,71.98
2016-10-17T04:30:50.323Z,71.59
2016-10-17T04:31:50.406Z,72.07
2016-10-17T04:32:50.374Z,71.88
2016-10-17T04:33:50.378Z,71.69
2016-10-17T04:34:50.399Z,71.5
2016-10-17T04:35:50.424Z,71.5
2016-10-17T04:36:50.438Z,71.41
2016-10-17T04:37:50.454Z,71.78
2016-10-17T04:38:50.472Z,71.5
2016-10-17T04:39:50.491Z,71.98
2016-10-17T04:40:50.514Z,72.26
2016-10-17T04:41:50.583Z,71.5
2016-10-17T04:42:50.860Z,71.5
2016-10-17T04:43:50.565Z,71.5
2016-10-17T04:44:50.583Z,71.98
2016-10-17T04:45:50.601Z,71.88
2016-10-17T04:46:50.624Z,71.31
2016-10-17T04:47:50.637Z,72.26
2016-10-17T04:48:50.657Z,72.26
2016-10-17T04:49:50.677Z,71.69
2016-10-17T04:50:50.698Z,71.5
2016-10-17T04:51:50.741Z,71.5
2016-10-17T04:52:50.731Z,71.59
2016-10-17T04:53:50.751Z,71.59
2016-10-17T04:54:50.768Z,71.5
2016-10-17T04:55:50.787Z,71.88
2016-10-17T04:56:50.805Z,71.88
2016-10-17T04:57:51.149Z,71.69
2016-10-17T04:58:50.845Z,71.69
2016-10-17T04:59:50.867Z,71.5
2016-10-17T05:00:50.887Z,71.69
2016-10-17T05:01:50.900Z,72.07
2016-10-17T05:02:50.921Z,71.5
2016-10-17T05:03:50.940Z,71.59
2016-10-17T05:04:50.953Z,71.5
2016-10-17T05:05:50.972Z,71.59
2016-10-17T05:06:50.991Z,71.31
2016-10-17T05:07:51.009Z,71.78
2016-10-17T05:08:51.027Z,71.59
2016-10-17T05:09:51.045Z,71.59
2016-10-17T05:10:51.064Z,71.5
2016-10-17T05:11:51.091Z,72.17
2016-10-17T05:12:51.103Z,71.59
2016-10-17T05:13:51.118Z,72.36
2016-10-17T05:14:51.136Z,72.17
2016-10-17T05:15:51.156Z,72.64
2016-10-17T05:16:51.362Z,72.74
2016-10-17T05:17:51.193Z,71.98
2016-10-17T05:18:51.213Z,71.98
2016-10-17T05:19:51.229Z,71.98
2016-10-17T05:20:51.247Z,72.07
2016-10-17T05:21:51.270Z,71.88
2016-10-17T05:22:51.287Z,71.98
2016-10-17T05:23:51.305Z,72.07
2016-10-17T05:24:51.324Z,72.26
2016-10-17T05:25:51.341Z,72.45
2016-10-17T05:26:51.359Z,72.26
2016-10-17T05:27:51.379Z,72.26
2016-10-17T05:28:51.397Z,72.26
2016-10-17T05:29:51.415Z,72.26
2016-10-17T05:30:51.435Z,72.64
2016-10-17T05:31:51.451Z,72.55
2016-10-17T05:32:51.470Z,71.98
2016-10-17T05:33:51.498Z,71.88
2016-10-17T05:34:51.507Z,71.98
2016-10-17T05:35:51.526Z,72.17
2016-10-17T05:36:51.543Z,72.07
2016-10-17T05:37:51.564Z,72.74
2016-10-17T05:38:51.589Z,72.26
2016-10-17T05:39:51.605Z,72.45
2016-10-17T05:40:51.618Z,72.26
2016-10-17T05:41:51.756Z,72.36
2016-10-17T05:42:51.665Z,72.45
2016-10-17T05:43:51.675Z,72.26
2016-10-17T05:44:51.695Z,72.36
2016-10-17T05:45:51.713Z,72.26
2016-10-17T05:46:51.760Z,72.17
2016-10-17T05:47:51.746Z,72.36
2016-10-17T05:48:51.768Z,72.26
2016-10-17T05:49:51.783Z,72.26
2016-10-17T05:50:51.802Z,72.64
2016-10-17T05:51:51.827Z,72.45
2016-10-17T05:52:51.839Z,72.45
2016-10-17T05:53:51.867Z,72.55
2016-10-17T05:54:51.874Z,72.36
2016-10-17T05:55:51.901Z,72.45
2016-10-17T05:56:51.912Z,72.55
2016-10-17T05:57:51.930Z,72.26
2016-10-17T05:58:51.949Z,72.36
2016-10-17T05:59:51.967Z,72.45
2016-10-17T06:00:51.987Z,72.55
2016-10-17T06:01:52.002Z,72.26
2016-10-17T06:02:52.027Z,72.55
2016-10-17T06:03:52.043Z,72.45
2016-10-17T06:04:52.059Z,71.98
2016-10-17T06:05:52.078Z,71.98
2016-10-17T06:06:52.098Z,71.98
2016-10-17T06:07:52.118Z,71.98
2016-10-17T06:08:52.138Z,72.17
2016-10-17T06:09:52.155Z,71.98
2016-10-17T06:10:52.172Z,71.98
2016-10-17T06:11:52.187Z,72.45
2016-10-17T06:12:52.224Z,72.55
2016-10-17T06:13:52.537Z,72.17
2016-10-17T06:14:52.252Z,72.45
2016-10-17T06:15:52.264Z,72.36
2016-10-17T06:16:52.293Z,72.45
2016-10-17T06:17:52.300Z,72.17
2016-10-17T06:18:52.320Z,72.17
2016-10-17T06:19:52.343Z,72.74
2016-10-17T06:20:52.355Z,71.98
2016-10-17T06:21:52.374Z,71.98
2016-10-17T06:22:52.396Z,72.07
2016-10-17T06:23:52.409Z,71.5
2016-10-17T06:24:52.429Z,71.98
2016-10-17T06:25:52.446Z,72.17
2016-10-17T06:26:52.463Z,72.45
2016-10-17T06:27:52.484Z,72.26
2016-10-17T06:28:52.502Z,72.36
2016-10-17T06:29:52.520Z,72.26
2016-10-17T06:30:52.553Z,72.45
2016-10-17T06:31:52.556Z,72.64
2016-10-17T06:32:52.574Z,72.55
2016-10-17T06:33:52.593Z,72.36
2016-10-17T06:34:52.611Z,71.98
2016-10-17T06:35:52.632Z,72.07
2016-10-17T06:36:52.649Z,71.78
2016-10-17T06:37:52.671Z,71.78
2016-10-17T06:38:52.684Z,71.5
2016-10-17T06:39:52.705Z,71.88
2016-10-17T06:40:52.731Z,71.69
2016-10-17T06:41:52.745Z,71.78
2016-10-17T06:42:52.764Z,71.5
2016-10-17T06:43:52.778Z,71.41
2016-10-17T06:44:52.797Z,71.78
2016-10-17T06:45:52.815Z,71.78
2016-10-17T06:46:52.845Z,71.88
2016-10-17T06:47:52.851Z,71.69
2016-10-17T06:48:52.870Z,71.5
2016-10-17T06:49:52.894Z,72.74
2016-10-17T06:50:52.908Z,71.98
2016-10-17T06:51:52.926Z,71.98
2016-10-17T06:52:52.947Z,71.5
2016-10-17T06:53:52.963Z,71.69
2016-10-17T06:54:52.981Z,71.53
2016-10-17T06:55:53.004Z,71.5
2016-10-17T06:56:53.019Z,71.69
2016-10-17T06:57:53.041Z,72.17
2016-10-17T06:58:53.058Z,72.17
2016-10-17T06:59:53.072Z,71.63
2016-10-17T07:00:53.090Z,71.5
2016-10-17T07:01:53.113Z,71.98
2016-10-17T07:02:53.130Z,71.72
2016-10-17T07:03:53.154Z,71.72
2016-10-17T07:04:53.168Z,71.72
2016-10-17T07:05:53.184Z,71.82
2016-10-17T07:06:53.213Z,71.92
2016-10-17T07:07:53.222Z,71.92
2016-10-17T07:08:53.247Z,71.82
2016-10-17T07:09:53.260Z,72.01
2016-10-17T07:10:53.282Z,71.72
2016-10-17T07:11:53.293Z,71.5
2016-10-17T07:12:53.314Z,71.92
2016-10-17T07:13:53.335Z,71.82
2016-10-17T07:14:53.356Z,71.72
2016-10-17T07:15:53.372Z,71.98
2016-10-17T07:16:53.395Z,71.06
2016-10-17T07:17:53.406Z,71.53
2016-10-17T07:18:53.426Z,71.53
2016-10-17T07:19:53.472Z,72.01
2016-10-17T07:20:53.462Z,71.92
2016-10-17T07:21:53.481Z,72.01
2016-10-17T07:22:53.503Z,72.01
2016-10-17T07:23:53.517Z,72.3
2016-10-17T07:24:53.537Z,72.01
2016-10-17T07:25:53.555Z,71.82
2016-10-17T07:26:53.574Z,71.44
2016-10-17T07:27:53.592Z,71.82
2016-10-17T07:28:53.614Z,72.3
2016-10-17T07:29:53.630Z,72.01
2016-10-17T07:30:53.654Z,71.92
2016-10-17T07:31:53.702Z,72.3
2016-10-17T07:32:53.687Z,72.01
2016-10-17T07:33:53.705Z,72.01
2016-10-17T07:34:53.724Z,72.01
2016-10-17T07:35:53.741Z,72.2
2016-10-17T07:36:53.764Z,71.82
2016-10-17T07:37:53.783Z,71.53
2016-10-17T07:38:53.801Z,72.01
2016-10-17T07:39:53.818Z,71.82
2016-10-17T07:40:53.838Z,71.72
2016-10-17T07:41:53.867Z,71.63
2016-10-17T07:42:53.882Z,71.82
2016-10-17T07:43:53.897Z,71.86
2016-10-17T07:44:53.911Z,71.86
2016-10-17T07:45:53.931Z,71.95
2016-10-17T07:46:53.949Z,71.95
2016-10-17T07:47:54.079Z,71.09
2016-10-17T07:48:53.987Z,71.47
2016-10-17T07:49:54.003Z,71.67
2016-10-17T07:50:54.109Z,71.47
2016-10-17T07:51:54.050Z,71.57
2016-10-17T07:52:54.176Z,71.47
2016-10-17T07:53:54.199Z,71.38
2016-10-17T07:54:54.212Z,71.47
2016-10-17T07:55:54.228Z,71.47
2016-10-17T07:56:54.253Z,71.38
2016-10-17T07:57:54.267Z,71.38
2016-10-17T07:58:54.287Z,71.47
2016-10-17T08:00:54.330Z,71.38
2016-10-17T08:01:54.530Z,71.38
2016-10-17T08:02:54.364Z,71.47
2016-10-17T08:03:54.373Z,71.28
2016-10-17T08:04:54.401Z,71.47
2016-10-17T08:05:54.517Z,71.38
2016-10-17T08:06:54.530Z,71.57
2016-10-17T08:07:54.534Z,71.57
2016-10-17T08:08:54.548Z,71.28
2016-10-17T08:09:54.554Z,71.47
2016-10-17T08:10:54.400Z,71.47
2016-10-17T08:11:54.422Z,71.61
2016-10-17T08:12:54.439Z,70.84
2016-10-17T08:13:54.456Z,70.94
2016-10-17T08:14:54.475Z,71.32
2016-10-17T08:15:54.496Z,70.56
2016-10-17T08:16:54.511Z,70.84
2016-10-17T08:17:54.534Z,70.94
2016-10-17T08:18:54.551Z,70.65
2016-10-17T08:19:54.569Z,70.84
2016-10-17T08:20:54.590Z,71.03
2016-10-17T08:21:54.612Z,70.65
2016-10-17T08:22:54.625Z,70.65
2016-10-17T08:23:54.645Z,70.56
2016-10-17T08:24:54.673Z,70.56
2016-10-17T08:25:54.684Z,70.75
2016-10-17T08:26:54.702Z,70.07
2016-10-17T08:27:54.729Z,69.89
2016-10-17T08:28:54.744Z,70.65
2016-10-17T08:29:54.762Z,70.27
2016-10-17T08:30:54.784Z,70.46
2016-10-17T08:31:54.802Z,69.89
2016-10-17T08:32:54.818Z,70.27
2016-10-17T08:33:54.842Z,69.92
2016-10-17T08:34:54.856Z,69.64
2016-10-17T08:35:54.875Z,70.4
2016-10-17T08:36:54.902Z,69.73
2016-10-17T08:37:55.039Z,69.64
2016-10-17T08:38:54.932Z,70.59
2016-10-17T08:39:55.170Z,69.64
2016-10-17T08:40:54.973Z,69.35
2016-10-17T08:41:54.992Z,70.11
2016-10-17T08:42:55.013Z,69.64
2016-10-17T08:43:55.030Z,69.64
2016-10-17T08:44:55.052Z,70.11
2016-10-17T08:45:55.098Z,69.25
2016-10-17T08:46:55.090Z,69.35
2016-10-17T08:47:55.109Z,69.44
2016-10-17T08:48:55.127Z,69.73
2016-10-17T08:49:55.148Z,68.87
2016-10-17T08:50:55.163Z,69.15
2016-10-17T08:51:55.186Z,68.87
2016-10-17T08:52:55.202Z,69.15
2016-10-17T08:53:55.232Z,68.87
2016-10-17T08:54:55.245Z,68.39
2016-10-17T08:55:55.269Z,68.58
2016-10-17T08:56:55.281Z,68.58
2016-10-17T08:57:55.302Z,68.42
2016-10-17T08:58:55.325Z,68.68
2016-10-17T08:59:55.340Z,69.09
2016-10-17T09:00:55.363Z,68.8
2016-10-17T09:01:55.380Z,68.13
2016-10-17T09:02:55.401Z,68.23
2016-10-17T09:03:55.546Z,67.85
2016-10-17T09:04:55.501Z,67.76
2016-10-17T09:05:55.458Z,67.76
2016-10-17T09:06:55.482Z,68.13
2016-10-17T09:07:55.496Z,68.04
2016-10-17T09:08:55.518Z,67.94
2016-10-17T09:09:55.537Z,68.13
2016-10-17T09:10:55.557Z,68.33
2016-10-17T09:11:55.575Z,67.94
2016-10-17T09:12:55.770Z,67.94
2016-10-17T09:13:55.615Z,67.27
2016-10-17T09:14:55.637Z,67.27
2016-10-17T09:15:55.654Z,67.47
2016-10-17T09:16:55.673Z,68.04
2016-10-17T09:17:55.697Z,67.94
2016-10-17T09:18:55.715Z,67.94
2016-10-17T09:19:55.741Z,67.27
2016-10-17T09:20:55.753Z,67.56
2016-10-17T09:21:55.773Z,67.69
2016-10-17T09:22:55.801Z,67.5
2016-10-17T09:23:55.813Z,68.07
2016-10-17T09:24:55.945Z,67.69
2016-10-17T09:25:55.862Z,67.31
2016-10-17T09:26:55.871Z,67.11
2016-10-17T09:27:55.893Z,67.79
2016-10-17T09:28:55.915Z,67.02
2016-10-17T09:29:55.936Z,67.21
2016-10-17T09:30:55.951Z,67.11
2016-10-17T09:31:55.972Z,66.35
2016-10-17T09:32:55.992Z,66.74
2016-10-17T09:33:56.012Z,66.35
2016-10-17T09:34:56.032Z,66.45
2016-10-17T09:35:56.052Z,66.74
2016-10-17T09:36:56.071Z,66.45
2016-10-17T09:37:56.100Z,66.83
2016-10-17T09:38:56.112Z,67.02
2016-10-17T09:39:56.131Z,66.77
2016-10-17T09:40:56.154Z,66.93
2016-10-17T09:41:56.173Z,66.67
2016-10-17T09:42:56.200Z,67.25
2016-10-17T09:43:56.209Z,66.48
2016-10-17T09:44:56.236Z,66.67
2016-10-17T09:45:56.437Z,66.86
2016-10-17T09:46:56.272Z,66.48
2016-10-17T09:47:56.298Z,66.86
2016-10-17T09:48:56.315Z,66.38
2016-10-17T09:49:56.334Z,66.67
2016-10-17T09:50:56.362Z,66.38
2016-10-17T09:51:56.624Z,66.58
2016-10-17T09:52:56.393Z,66.13
2016-10-17T09:53:56.414Z,65.94
2016-10-17T09:54:56.435Z,65.84
2016-10-17T09:55:56.452Z,66.42
2016-10-17T09:56:56.474Z,65.75
2016-10-17T09:57:56.498Z,65.75
2016-10-17T09:58:56.514Z,65.46
2016-10-17T09:59:56.563Z,65.36
2016-10-17T10:00:56.554Z,65.17
2016-10-17T10:01:56.691Z,64.98
2016-10-17T10:02:56.597Z,65.17
2016-10-17T10:03:56.623Z,64.79
2016-10-17T10:04:56.636Z,64.5
2016-10-17T10:05:56.658Z,64.5
2016-10-17T10:06:56.678Z,64.79
2016-10-17T10:07:56.702Z,64.69
2016-10-17T10:08:56.719Z,64.59
2016-10-17T10:09:56.738Z,64.59
2016-10-17T10:10:56.873Z,64.59
2016-10-17T10:11:56.782Z,64.34
2016-10-17T10:12:56.803Z,64.72
2016-10-17T10:13:56.828Z,63.86
2016-10-17T10:14:56.843Z,64.43
2016-10-17T10:15:56.864Z,64.25
2016-10-17T10:16:56.897Z,64.53
2016-10-17T10:17:56.917Z,64.25
2016-10-17T10:18:57.039Z,63.76
2016-10-17T10:19:56.946Z,63.76
2016-10-17T10:20:56.967Z,63.86
2016-10-17T10:21:56.987Z,63.67
2016-10-17T10:22:57.013Z,63.42
2016-10-17T10:23:57.069Z,63.42
2016-10-17T10:24:57.054Z,63.6
2016-10-17T10:25:57.070Z,63.22
2016-10-17T10:26:57.094Z,63.42
2016-10-17T10:27:57.114Z,62.84
2016-10-17T10:28:57.141Z,63.22
2016-10-17T10:29:57.196Z,63.22
2016-10-17T10:30:57.177Z,63.22
2016-10-17T10:31:57.196Z,63.03
2016-10-17T10:32:57.220Z,62.93
2016-10-17T10:33:57.237Z,63.03
2016-10-17T10:34:57.262Z,62.93
2016-10-17T10:35:57.282Z,62.84
2016-10-17T10:36:57.304Z,62.45
2016-10-17T10:37:57.322Z,62.26
2016-10-17T10:38:57.343Z,62.36
2016-10-17T10:39:57.530Z,62.19
2016-10-17T10:40:57.387Z,62.19
2016-10-17T10:41:57.719Z,62.26
2016-10-17T10:42:57.426Z,62.07
2016-10-17T10:43:57.560Z,61.81
2016-10-17T10:44:57.471Z,62.1
2016-10-17T10:45:57.498Z,62.19
2016-10-17T10:46:57.629Z,62.19
2016-10-17T10:47:57.534Z,61.81
2016-10-17T10:48:57.559Z,61.72
2016-10-17T10:49:57.578Z,61.43
2016-10-17T10:50:57.601Z,61.62
2016-10-17T10:51:57.620Z,61.33
2016-10-17T10:52:57.646Z,61.24
2016-10-17T10:53:57.661Z,61.72
2016-10-17T10:54:57.685Z,61.33
2016-10-17T10:55:57.705Z,61.24
2016-10-17T10:56:58.044Z,61.46
2016-10-17T10:57:57.862Z,61.46
2016-10-17T10:58:57.770Z,61.65
2016-10-17T10:59:57.799Z,61.55
2016-10-17T11:00:57.813Z,61.08
2016-10-17T11:01:57.838Z,61.27
2016-10-17T11:02:57.861Z,61.65
2016-10-17T11:03:57.880Z,61.27
2016-10-17T11:04:57.898Z,61.65
2016-10-17T11:05:57.920Z,61.55
2016-10-17T11:06:57.952Z,61.46
2016-10-17T11:07:57.964Z,61.46
2016-10-17T11:08:58.201Z,61.27
2016-10-17T11:09:58.013Z,60.69
2016-10-17T11:10:58.035Z,61.27
2016-10-17T11:11:58.048Z,60.6
2016-10-17T11:12:58.391Z,60.63
2016-10-17T11:13:58.215Z,60.4
2016-10-17T11:14:58.115Z,60.34
2016-10-17T11:15:58.137Z,60.21
2016-10-17T11:16:58.165Z,60.53
2016-10-17T11:17:58.179Z,60.53
2016-10-17T11:18:58.201Z,60.72
2016-10-17T11:19:58.221Z,60.72
2016-10-17T11:20:58.243Z,61.01
2016-10-17T11:21:58.269Z,60.72
2016-10-17T11:22:58.293Z,60.63
2016-10-17T11:23:58.313Z,60.43
2016-10-17T11:24:58.331Z,60.82
2016-10-17T11:25:58.354Z,60.72
2016-10-17T11:26:58.373Z,60.43
2016-10-17T11:27:58.397Z,60.72
2016-10-17T11:28:58.421Z,60.53
2016-10-17T11:29:58.759Z,60.53
2016-10-17T11:30:58.462Z,60.24
2016-10-17T11:31:58.486Z,60.24
2016-10-17T11:32:58.508Z,60.72
2016-10-17T11:33:58.530Z,60.72
2016-10-17T11:34:58.549Z,60.24
2016-10-17T11:35:58.571Z,60.08
2016-10-17T11:36:58.593Z,59.99
2016-10-17T11:37:58.618Z,59.89
2016-10-17T11:38:58.641Z,59.79
2016-10-17T11:39:58.666Z,59.89
2016-10-17T11:40:58.681Z,59.41
2016-10-17T11:41:58.706Z,59.31
2016-10-17T11:42:58.827Z,59.31
2016-10-17T11:43:58.867Z,59.6
2016-10-17T11:44:58.770Z,59.5
2016-10-17T11:45:58.921Z,59.41
2016-10-17T11:46:58.814Z,59.41
2016-10-17T11:47:58.846Z,59.5
2016-10-17T11:48:58.986Z,59.41
2016-10-17T11:49:58.881Z,59.31
2016-10-17T11:50:58.904Z,59.41
2016-10-17T11:51:58.923Z,59.41
2016-10-17T11:52:58.947Z,59.12
2016-10-17T11:53:58.971Z,59.02
2016-10-17T11:54:58.991Z,59.02
2016-10-17T11:55:59.013Z,59.02
2016-10-17T11:56:59.044Z,59.22
2016-10-17T11:57:59.057Z,59.22
2016-10-17T11:58:59.192Z,59.12
2016-10-17T11:59:59.102Z,59.12
2016-10-17T12:00:59.128Z,59.34
2016-10-17T12:01:59.148Z,59.22
2016-10-17T12:02:59.168Z,59.24
2016-10-17T12:03:59.193Z,58.83
2016-10-17T12:04:59.214Z,59.12
2016-10-17T12:05:59.272Z,58.92
2016-10-17T12:06:59.259Z,59.31
2016-10-17T12:07:59.321Z,59.05
2016-10-17T12:08:59.311Z,59.15
2016-10-17T12:09:59.446Z,58.95
2016-10-17T12:10:59.348Z,59.15
2016-10-17T12:11:59.372Z,58.95
2016-10-17T12:12:59.400Z,58.86
2016-10-17T12:13:59.737Z,58.37
2016-10-17T12:14:59.555Z,58.67
2016-10-17T12:15:59.462Z,58.47
2016-10-17T12:16:59.485Z,58.37
2016-10-17T12:17:59.822Z,58.09
2016-10-17T12:18:59.529Z,58.09
2016-10-17T12:19:59.553Z,58.18
2016-10-17T12:20:59.582Z,58.67
2016-10-17T12:21:59.914Z,58.37
2016-10-17T12:22:59.623Z,58.37
2016-10-17T12:23:59.668Z,58.18
2016-10-17T12:24:59.671Z,57.99
2016-10-17T12:25:59.694Z,58.18
2016-10-17T12:26:59.728Z,58.37
2016-10-17T12:27:59.746Z,58.28
2016-10-17T12:28:59.756Z,57.9
2016-10-17T12:29:59.790Z,58.18
2016-10-17T12:30:59.800Z,58.37
2016-10-17T12:31:59.841Z,58.09
2016-10-17T12:32:59.848Z,58.57
2016-10-17T12:33:59.872Z,58.37
2016-10-17T12:34:59.902Z,58.18
2016-10-17T12:35:59.964Z,58.09
2016-10-17T12:36:59.937Z,57.8
2016-10-17T12:37:59.971Z,57.6
2016-10-17T12:39:00.098Z,57.6
2016-10-17T12:40:00.010Z,57.32
2016-10-17T12:41:00.030Z,57.22
2016-10-17T12:42:00.059Z,57.42
2016-10-17T12:43:00.073Z,57.51
2016-10-17T12:44:00.100Z,57.42
2016-10-17T12:45:00.234Z,57.51
2016-10-17T12:46:00.154Z,57.9
2016-10-17T12:47:00.166Z,57.99
2016-10-17T12:48:00.190Z,57.6
2016-10-17T12:49:00.225Z,57.42
2016-10-17T12:50:00.552Z,57.6
2016-10-17T12:51:00.260Z,57.42
2016-10-17T12:52:00.289Z,57.6
2016-10-17T12:53:00.303Z,57.6
2016-10-17T12:54:00.334Z,57.51
2016-10-17T12:55:00.359Z,57.51
2016-10-17T12:56:00.386Z,57.03